createdAt,value
2018-12-25T00:00:28.104Z,13.93
2018-12-25T00:02:57.484Z,15.37
2018-12-25T00:05:27.178Z,16.73
2018-12-25T00:07:57.736Z,15.80
2018-12-25T00:13:23.765Z,16.90
2018-12-25T00:15:53.488Z,16.17
2018-12-25T00:18:23.081Z,16.00
2018-12-25T00:20:53.804Z,14.80
2018-12-25T00:23:23.257Z,14.43
2018-12-25T00:25:52.405Z,15.27
2018-12-25T00:28:24.449Z,15.23
2018-12-25T00:31:03.305Z,15.33
2018-12-25T00:33:32.749Z,16.63
2018-12-25T00:36:23.863Z,19.07
2018-12-25T00:38:53.326Z,20.73
2018-12-25T00:41:22.626Z,18.50
2018-12-25T00:43:52.176Z,20.67
2018-12-25T00:46:21.776Z,22.50
2018-12-25T00:48:51.390Z,21.70
2018-12-25T00:51:20.846Z,24.47
2018-12-25T00:53:50.276Z,22.83
2018-12-25T00:56:19.719Z,22.40
2018-12-25T00:58:49.157Z,21.90
2018-12-25T01:01:18.648Z,19.87
2018-12-25T01:03:48.212Z,22.27
2018-12-25T01:06:17.383Z,23.23
2018-12-25T01:08:46.958Z,19.47
2018-12-25T01:11:32.969Z,22.87
2018-12-25T01:14:02.379Z,21.83
2018-12-25T01:16:31.577Z,18.80
2018-12-25T01:19:00.913Z,17.13
2018-12-25T01:21:30.156Z,18.80
2018-12-25T01:23:59.340Z,18.57
2018-12-25T01:26:28.677Z,18.97
2018-12-25T01:28:57.875Z,18.27
2018-12-25T01:31:27.103Z,18.30
2018-12-25T01:33:56.465Z,18.17
2018-12-25T01:36:25.672Z,17.13
2018-12-25T01:38:54.840Z,17.80
2018-12-25T01:41:23.976Z,16.47
2018-12-25T01:43:56.252Z,18.43
2018-12-25T01:46:25.627Z,17.67
2018-12-25T01:48:55.205Z,18.10
2018-12-25T01:51:24.692Z,26.30
2018-12-25T01:53:54.439Z,16.60
2018-12-25T01:56:23.966Z,15.97
2018-12-25T01:58:53.455Z,16.17
2018-12-25T02:01:23.039Z,14.77
2018-12-25T02:03:52.517Z,17.07
2018-12-25T02:06:22.237Z,15.23
2018-12-25T02:08:51.795Z,13.23
2018-12-25T02:11:21.227Z,14.93
2018-12-25T02:13:52.424Z,14.03
2018-12-25T02:16:21.821Z,12.80
2018-12-25T02:18:51.354Z,14.13
2018-12-25T02:21:21.060Z,13.27
2018-12-25T02:23:50.615Z,13.87
2018-12-25T02:26:20.247Z,14.97
2018-12-25T02:28:49.492Z,14.97
2018-12-25T02:31:18.839Z,14.87
2018-12-25T02:33:48.519Z,15.90
2018-12-25T02:36:18.077Z,15.57
2018-12-25T02:38:47.735Z,16.73
2018-12-25T02:41:17.425Z,15.57
2018-12-25T02:43:46.967Z,16.10
2018-12-25T02:46:16.520Z,16.60
2018-12-25T02:48:45.861Z,16.43
2018-12-25T02:51:15.461Z,16.73
2018-12-25T02:53:44.856Z,17.87
2018-12-25T02:56:14.326Z,19.63
2018-12-25T02:58:43.964Z,18.43
2018-12-25T03:01:13.282Z,17.53
2018-12-25T03:03:42.645Z,17.53
2018-12-25T03:06:12.202Z,18.90
2018-12-25T03:08:41.776Z,17.57
2018-12-25T03:11:11.535Z,18.67
2018-12-25T03:13:40.992Z,18.03
2018-12-25T03:16:10.660Z,18.83
2018-12-25T03:18:40.226Z,19.40
2018-12-25T03:21:09.820Z,19.13
2018-12-25T03:23:39.538Z,20.10
2018-12-25T03:26:09.201Z,17.63
2018-12-25T03:28:38.833Z,18.23
2018-12-25T03:31:08.366Z,18.33
2018-12-25T03:33:37.906Z,18.40
2018-12-25T03:36:07.539Z,20.27
2018-12-25T03:38:37.219Z,19.67
2018-12-25T03:41:06.806Z,19.40
2018-12-25T03:43:36.263Z,19.10
2018-12-25T03:46:05.791Z,18.93
2018-12-25T03:48:35.289Z,18.30
2018-12-25T03:51:05.141Z,17.97
2018-12-25T03:53:34.680Z,18.57
2018-12-25T03:56:04.114Z,20.93
2018-12-25T03:58:33.803Z,18.43
2018-12-25T04:01:03.473Z,20.43
2018-12-25T04:03:32.866Z,19.17
2018-12-25T04:06:02.573Z,18.50
2018-12-25T04:08:32.203Z,19.53
2018-12-25T04:11:01.943Z,19.47
2018-12-25T04:13:31.834Z,20.50
2018-12-25T04:16:01.791Z,24.50
2018-12-25T04:18:34.933Z,39.47
2018-12-25T04:21:04.813Z,21.33
2018-12-25T04:23:34.561Z,18.87
2018-12-25T04:26:04.357Z,19.57
2018-12-25T04:28:36.977Z,21.37
2018-12-25T04:31:06.930Z,19.20
2018-12-25T04:33:36.500Z,19.87
2018-12-25T04:36:06.311Z,21.00
2018-12-25T04:38:36.124Z,19.10
2018-12-25T04:41:05.780Z,19.67
2018-12-25T04:43:35.719Z,20.30
2018-12-25T04:46:05.404Z,20.23
2018-12-25T04:48:35.270Z,21.07
2018-12-25T04:51:05.127Z,20.97
2018-12-25T04:53:35.482Z,20.60
2018-12-25T04:56:05.209Z,21.37
2018-12-25T04:58:35.236Z,20.73
2018-12-25T05:01:05.049Z,20.67
2018-12-25T05:03:37.274Z,21.47
2018-12-25T05:06:07.132Z,21.47
2018-12-25T05:08:36.628Z,19.90
2018-12-25T05:11:06.225Z,19.77
2018-12-25T05:13:35.777Z,19.07
2018-12-25T05:16:05.281Z,21.20
2018-12-25T05:18:34.861Z,19.53
2018-12-25T05:21:04.467Z,22.33
2018-12-25T05:23:34.453Z,19.43
2018-12-25T05:26:04.195Z,20.37
2018-12-25T05:28:33.947Z,19.47
2018-12-25T05:31:03.585Z,21.03
2018-12-25T05:33:33.530Z,22.10
2018-12-25T05:36:03.519Z,21.40
2018-12-25T05:38:33.461Z,20.20
2018-12-25T05:41:02.588Z,21.43
2018-12-25T05:43:31.792Z,21.57
2018-12-25T05:46:01.027Z,19.13
2018-12-25T05:48:30.325Z,21.93
2018-12-25T05:50:59.590Z,19.67
2018-12-25T05:53:28.865Z,21.53
2018-12-25T05:55:58.349Z,20.83
2018-12-25T05:58:27.724Z,20.10
2018-12-25T06:00:57.068Z,19.80
2018-12-25T06:03:26.484Z,20.63
2018-12-25T06:05:56.215Z,20.93
2018-12-25T06:08:25.873Z,22.70
2018-12-25T06:10:55.471Z,23.47
2018-12-25T06:13:25.304Z,22.20
2018-12-25T06:15:55.003Z,22.63
2018-12-25T06:18:27.427Z,21.93
2018-12-25T06:20:56.916Z,22.53
2018-12-25T06:23:26.593Z,23.30
2018-12-25T06:25:56.189Z,21.43
2018-12-25T06:28:25.687Z,23.37
2018-12-25T06:31:00.818Z,22.43
2018-12-25T06:33:39.269Z,22.20
2018-12-25T06:36:09.298Z,22.33
2018-12-25T06:38:39.114Z,22.30
2018-12-25T06:41:08.883Z,25.17
2018-12-25T06:43:38.720Z,24.10
2018-12-25T06:46:08.607Z,24.40
2018-12-25T06:48:41.900Z,26.20
2018-12-25T06:51:15.225Z,27.63
2018-12-25T06:53:49.949Z,24.30
2018-12-25T06:56:33.953Z,31.17
2018-12-25T06:59:04.701Z,25.63
2018-12-25T07:01:39.328Z,26.20
2018-12-25T07:04:12.312Z,27.07
2018-12-25T07:06:42.843Z,28.63
2018-12-25T07:09:16.137Z,28.10
2018-12-25T07:11:53.861Z,29.43
2018-12-25T07:14:42.309Z,31.60
2018-12-25T07:17:12.513Z,28.80
2018-12-25T07:19:51.660Z,30.33
2018-12-25T07:22:26.800Z,32.17
2018-12-25T07:25:01.936Z,33.90
2018-12-25T07:27:35.640Z,30.60
2018-12-25T07:30:06.391Z,33.03
2018-12-25T07:32:39.537Z,32.47
2018-12-25T07:35:12.493Z,126.83
2018-12-25T07:38:01.887Z,33.67
2018-12-25T07:40:32.283Z,31.03
2018-12-25T07:43:02.098Z,27.60
2018-12-25T07:45:32.559Z,28.23
2018-12-25T07:48:02.474Z,26.60
2018-12-25T07:50:35.460Z,31.90
2018-12-25T07:53:11.650Z,28.37
2018-12-25T07:55:53.792Z,27.70
2018-12-25T07:59:19.029Z,31.97
2018-12-25T08:01:06.675Z,27.33
2018-12-25T08:03:38.137Z,26.77
2018-12-25T08:06:11.129Z,26.37
2018-12-25T08:08:41.384Z,22.53
2018-12-25T08:11:11.539Z,26.73
2018-12-25T08:13:41.787Z,24.60
2018-12-25T08:16:15.346Z,26.07
2018-12-25T08:18:49.608Z,27.93
2018-12-25T08:21:19.873Z,24.53
2018-12-25T08:23:52.882Z,24.20
2018-12-25T08:26:23.316Z,23.77
2018-12-25T08:28:53.361Z,27.97
2018-12-25T08:31:26.553Z,23.40
2018-12-25T08:33:56.570Z,22.47
2018-12-25T08:36:29.220Z,20.93
2018-12-25T08:39:02.134Z,22.30
2018-12-25T08:41:41.163Z,22.53
2018-12-25T08:44:16.935Z,22.90
2018-12-25T08:46:49.865Z,24.03
2018-12-25T08:49:20.497Z,26.57
2018-12-25T08:51:50.857Z,24.93
2018-12-25T08:54:20.776Z,24.57
2018-12-25T08:56:50.687Z,23.10
2018-12-25T08:59:23.366Z,23.63
2018-12-25T09:01:55.021Z,25.27
2018-12-25T09:04:27.879Z,23.77
2018-12-25T09:06:58.030Z,29.57
2018-12-25T09:09:33.674Z,22.97
2018-12-25T09:12:03.794Z,31.70
2018-12-25T09:14:33.606Z,23.13
2018-12-25T09:17:03.523Z,23.33
2018-12-25T09:19:33.435Z,21.67
2018-12-25T09:22:03.343Z,24.40
2018-12-25T09:24:33.164Z,24.37
2018-12-25T09:27:12.293Z,24.83
2018-12-25T09:29:48.045Z,23.50
2018-12-25T09:32:18.421Z,21.57
2018-12-25T09:34:48.489Z,22.37
2018-12-25T09:37:21.478Z,21.97
2018-12-25T09:39:51.449Z,23.23
2018-12-25T09:42:24.620Z,22.13
2018-12-25T09:44:54.598Z,22.37
2018-12-25T09:47:24.718Z,21.87
2018-12-25T09:49:55.146Z,19.80
2018-12-25T09:52:27.592Z,29.93
2018-12-25T09:54:57.096Z,45.77
2018-12-25T09:57:30.020Z,31.30
2018-12-25T10:00:03.105Z,21.20
2018-12-25T10:02:33.217Z,21.60
2018-12-25T10:05:08.764Z,20.77
2018-12-25T10:07:38.653Z,20.17
2018-12-25T10:10:13.171Z,18.63
2018-12-25T10:12:49.745Z,19.83
2018-12-25T10:15:19.790Z,26.23
2018-12-25T10:21:32.091Z,21.80
2018-12-25T10:24:02.210Z,23.47
2018-12-25T10:26:32.051Z,22.80
2018-12-25T10:29:02.313Z,18.10
2018-12-25T10:31:32.186Z,16.23
2018-12-25T10:34:02.361Z,17.47
2018-12-25T10:36:32.425Z,17.97
2018-12-25T10:39:17.579Z,16.60
2018-12-25T10:41:47.965Z,16.73
2018-12-25T10:44:18.425Z,18.87
2018-12-25T10:46:48.469Z,19.10
2018-12-25T10:49:18.523Z,20.07
2018-12-25T10:51:52.642Z,18.17
2018-12-25T10:54:25.426Z,19.33
2018-12-25T10:56:58.748Z,19.33
2018-12-25T10:59:30.997Z,20.03
2018-12-25T11:02:01.064Z,23.10
2018-12-25T11:04:34.954Z,19.13
2018-12-25T11:07:05.031Z,32.87
2018-12-25T11:09:47.336Z,20.97
2018-12-25T11:12:20.424Z,19.53
2018-12-25T11:14:50.400Z,20.40
2018-12-25T11:17:20.167Z,17.87
2018-12-25T11:19:50.069Z,20.00
2018-12-25T11:22:23.320Z,20.97
2018-12-25T11:24:53.588Z,19.93
2018-12-25T11:27:26.565Z,15.60
2018-12-25T11:30:02.382Z,17.07
2018-12-25T11:32:38.289Z,19.90
2018-12-25T11:35:15.011Z,20.27
2018-12-25T11:37:44.198Z,22.43
2018-12-25T11:40:13.612Z,28.37
2018-12-25T11:42:44.276Z,18.77
2018-12-25T11:45:29.901Z,47.80
2018-12-25T11:47:59.330Z,25.73
2018-12-25T11:50:29.143Z,20.33
2018-12-25T11:52:58.517Z,19.53
2018-12-25T11:55:27.768Z,17.80
2018-12-25T11:57:57.199Z,18.17
2018-12-25T12:00:31.053Z,18.27
2018-12-25T12:03:00.567Z,18.67
2018-12-25T12:05:30.354Z,18.67
2018-12-25T12:07:59.678Z,19.10
2018-12-25T12:10:29.334Z,19.40
2018-12-25T12:12:58.519Z,20.30
2018-12-25T12:15:28.072Z,20.33
2018-12-25T12:17:57.270Z,19.93
2018-12-25T12:20:26.386Z,19.87
2018-12-25T12:22:55.643Z,21.80
2018-12-25T12:25:24.914Z,20.83
2018-12-25T12:27:54.155Z,20.80
2018-12-25T12:30:23.366Z,20.00
2018-12-25T12:32:52.573Z,22.50
2018-12-25T12:35:21.680Z,22.40
2018-12-25T12:37:50.832Z,23.03
2018-12-25T12:40:20.048Z,21.47
2018-12-25T12:42:49.181Z,21.80
2018-12-25T12:45:18.316Z,24.80
2018-12-25T12:47:47.492Z,23.83
2018-12-25T12:50:16.712Z,22.93
2018-12-25T12:52:46.016Z,22.87
2018-12-25T12:55:15.356Z,22.90
2018-12-25T12:57:44.499Z,25.53
2018-12-25T13:00:13.645Z,22.40
2018-12-25T13:02:42.801Z,23.33
2018-12-25T13:05:12.008Z,21.77
2018-12-25T13:07:41.210Z,21.87
2018-12-25T13:10:10.461Z,22.57
2018-12-25T13:12:39.580Z,22.27
2018-12-25T13:15:08.826Z,19.87
2018-12-25T13:17:38.054Z,20.10
2018-12-25T13:20:07.299Z,19.53
2018-12-25T13:22:36.977Z,20.73
2018-12-25T13:25:06.355Z,21.13
2018-12-25T13:27:35.604Z,20.60
2018-12-25T13:30:05.770Z,18.67
2018-12-25T13:32:34.981Z,19.03
2018-12-25T13:35:04.129Z,20.03
2018-12-25T13:37:33.397Z,20.03
2018-12-25T13:40:02.626Z,20.23
2018-12-25T13:42:31.812Z,20.63
2018-12-25T13:45:00.948Z,20.97
2018-12-25T13:47:30.225Z,20.00
2018-12-25T13:49:59.447Z,18.13
2018-12-25T13:52:28.693Z,19.63
2018-12-25T13:54:58.051Z,19.40
2018-12-25T13:57:27.252Z,19.07
2018-12-25T13:59:56.373Z,18.73
2018-12-25T14:02:25.633Z,18.80
2018-12-25T14:04:54.857Z,18.43
2018-12-25T14:07:24.093Z,18.57
2018-12-25T14:09:53.381Z,17.40
2018-12-25T14:12:22.593Z,20.43
2018-12-25T14:14:51.812Z,19.20
2018-12-25T14:17:21.074Z,18.43
2018-12-25T14:19:50.275Z,17.00
2018-12-25T14:22:19.436Z,18.67
2018-12-25T14:24:48.649Z,18.50
2018-12-25T14:27:17.913Z,19.43
2018-12-25T14:29:47.145Z,16.73
2018-12-25T14:32:16.316Z,23.20
2018-12-25T14:34:45.492Z,20.10
2018-12-25T14:37:14.801Z,18.17
2018-12-25T14:39:44.244Z,18.27
2018-12-25T14:42:13.510Z,18.43
2018-12-25T14:44:42.760Z,19.70
2018-12-25T14:47:12.320Z,20.00
2018-12-25T14:49:41.566Z,19.43
2018-12-25T14:52:10.826Z,19.53
2018-12-25T14:54:40.025Z,20.33
2018-12-25T14:57:09.203Z,19.50
2018-12-25T14:59:38.488Z,20.23
2018-12-25T15:02:07.754Z,19.90
2018-12-25T15:04:36.983Z,24.43
2018-12-25T15:07:06.214Z,18.27
2018-12-25T15:09:35.419Z,18.77
2018-12-25T15:12:04.612Z,18.50
2018-12-25T15:14:33.927Z,20.60
2018-12-25T15:17:03.187Z,21.10
2018-12-25T15:19:32.371Z,24.47
2018-12-25T15:22:01.580Z,28.57
2018-12-25T15:24:30.930Z,28.10
2018-12-25T15:27:00.200Z,24.47
2018-12-25T15:29:29.362Z,33.53
2018-12-25T15:31:58.642Z,37.43
2018-12-25T15:34:27.857Z,25.20
2018-12-25T15:36:57.338Z,29.40
2018-12-25T15:39:26.575Z,30.87
2018-12-25T15:41:55.732Z,26.37
2018-12-25T15:44:24.981Z,25.90
2018-12-25T15:46:54.217Z,22.47
2018-12-25T15:49:23.431Z,23.27
2018-12-25T15:51:52.589Z,23.60
2018-12-25T15:54:21.764Z,24.03
2018-12-25T15:56:51.085Z,23.80
2018-12-25T15:59:20.234Z,22.27
2018-12-25T16:01:49.568Z,20.70
2018-12-25T16:04:18.742Z,24.20
2018-12-25T16:06:48.923Z,23.73
2018-12-25T16:09:19.966Z,23.00
2018-12-25T16:11:49.190Z,24.80
2018-12-25T16:14:18.343Z,24.53
2018-12-25T16:16:47.505Z,24.50
2018-12-25T16:19:20.332Z,25.00
2018-12-25T16:21:49.876Z,23.23
2018-12-25T16:24:27.268Z,24.53
2018-12-25T16:26:51.561Z,23.00
2018-12-25T16:29:29.541Z,24.30
2018-12-25T16:32:02.957Z,23.13
2018-12-25T16:34:35.897Z,24.70
2018-12-25T16:37:24.654Z,24.37
2018-12-25T16:39:54.466Z,25.03
2018-12-25T16:42:39.382Z,25.93
2018-12-25T16:45:19.998Z,24.20
2018-12-25T16:47:53.062Z,25.87
2018-12-25T16:50:23.386Z,24.50
2018-12-25T16:53:00.877Z,23.67
2018-12-25T16:55:33.401Z,27.37
2018-12-25T16:58:03.294Z,24.67
2018-12-25T17:00:33.588Z,30.27
2018-12-25T17:03:06.297Z,28.53
2018-12-25T17:05:36.519Z,25.90
2018-12-25T17:08:06.788Z,26.23
2018-12-25T17:10:36.860Z,26.77
2018-12-25T17:13:07.466Z,25.60
2018-12-25T17:15:37.686Z,25.13
2018-12-25T17:18:09.614Z,25.73
2018-12-25T17:20:52.476Z,25.10
2018-12-25T17:23:28.247Z,23.77
2018-12-25T17:26:22.533Z,25.33
2018-12-25T17:28:53.163Z,24.00
2018-12-25T17:31:25.476Z,26.23
2018-12-25T17:34:01.341Z,25.60
2018-12-25T17:36:30.878Z,28.10
2018-12-25T17:39:00.953Z,27.20
2018-12-25T17:41:31.440Z,31.40
2018-12-25T17:44:01.497Z,27.60
2018-12-25T17:46:44.071Z,26.97
2018-12-25T17:49:19.210Z,30.90
2018-12-25T17:52:00.260Z,27.93
2018-12-25T17:54:48.361Z,28.10
2018-12-25T17:59:32.276Z,29.00
2018-12-25T18:00:37.102Z,28.27
2018-12-25T18:03:07.426Z,29.23
2018-12-25T18:05:37.852Z,30.33
2018-12-25T18:08:11.221Z,28.43
2018-12-25T18:10:41.441Z,39.47
2018-12-25T18:13:11.896Z,40.90
2018-12-25T18:15:41.851Z,45.63
2018-12-25T18:18:16.127Z,50.13
2018-12-25T18:20:46.080Z,53.20
2018-12-25T18:23:16.304Z,52.13
2018-12-25T18:25:58.473Z,47.87
2018-12-25T18:28:34.425Z,55.53
2018-12-25T18:31:05.793Z,65.10
2018-12-25T18:33:35.483Z,45.93
2018-12-25T18:36:08.287Z,43.50
2018-12-25T18:38:41.016Z,56.10
2018-12-25T18:41:10.903Z,58.07
2018-12-25T18:43:40.439Z,52.63
2018-12-25T18:46:10.026Z,55.83
2018-12-25T18:48:39.543Z,58.23
2018-12-25T18:51:09.288Z,46.57
2018-12-25T19:00:15.699Z,55.93
2018-12-25T19:03:00.974Z,52.37
2018-12-25T19:05:31.198Z,48.57
2018-12-25T19:08:16.675Z,47.50
2018-12-25T19:10:47.614Z,48.90
2018-12-25T19:13:17.934Z,50.33
2018-12-25T19:15:50.208Z,48.77
2018-12-25T19:18:20.424Z,48.80
2018-12-25T19:20:56.488Z,53.27
2018-12-25T19:23:31.523Z,45.77
2018-12-25T19:26:02.052Z,49.17
2018-12-25T19:28:31.968Z,43.77
2018-12-25T19:31:08.610Z,42.63
2018-12-25T19:33:45.184Z,45.30
2018-12-25T19:36:18.131Z,45.93
2018-12-25T19:38:48.766Z,46.53
2018-12-25T19:41:18.949Z,49.23
2018-12-25T19:43:54.905Z,54.07
2018-12-25T19:46:27.796Z,110.50
2018-12-25T19:48:58.191Z,74.50
2018-12-25T19:51:28.617Z,53.97
2018-12-25T19:53:58.325Z,54.70
2018-12-25T19:56:28.291Z,62.50
2018-12-25T19:59:00.990Z,53.63
2018-12-25T20:01:34.036Z,47.17
2018-12-25T20:04:12.729Z,46.97
2018-12-25T20:07:16.508Z,52.73
2018-12-25T20:10:23.481Z,48.00
2018-12-25T20:13:34.195Z,46.40
2018-12-25T20:16:42.740Z,47.00
2018-12-25T20:20:07.164Z,51.50
2018-12-25T20:23:30.500Z,45.73
2018-12-25T20:26:37.692Z,43.83
2018-12-25T20:29:55.383Z,46.43
2018-12-25T20:36:45.476Z,49.53
2018-12-25T20:39:56.923Z,45.73
2018-12-25T20:43:10.362Z,45.83
2018-12-25T20:45:56.334Z,50.50
2018-12-25T20:52:34.168Z,48.67
2018-12-25T20:55:49.811Z,46.87
2018-12-25T20:59:14.160Z,48.23
2018-12-25T21:02:30.255Z,46.70
2018-12-25T21:05:38.833Z,49.33
2018-12-25T21:08:40.434Z,56.87
2018-12-25T21:11:49.341Z,51.23
2018-12-25T21:15:17.278Z,56.20
2018-12-25T21:18:41.189Z,55.10
2018-12-25T21:21:48.505Z,51.93
2018-12-25T21:24:59.180Z,50.73
2018-12-25T21:27:33.705Z,47.10
2018-12-25T21:30:09.351Z,53.53
2018-12-25T21:32:43.897Z,49.73
2018-12-25T21:35:23.723Z,49.73
2018-12-25T21:37:54.840Z,52.30
2018-12-25T21:40:24.961Z,61.53
2018-12-25T21:42:55.719Z,47.80
2018-12-25T21:50:16.860Z,39.37
2018-12-25T21:51:49.102Z,38.97
2018-12-25T21:54:37.676Z,37.97
2018-12-25T21:57:07.669Z,37.20
2018-12-25T21:59:37.641Z,39.40
2018-12-25T22:02:08.079Z,40.20
2018-12-25T22:04:39.933Z,40.70
2018-12-25T22:07:09.936Z,41.07
2018-12-25T22:09:40.312Z,38.07
2018-12-25T22:12:10.563Z,41.87
2018-12-25T22:14:43.724Z,36.73
2018-12-25T22:17:16.684Z,45.70
2018-12-25T22:22:36.028Z,37.37
2018-12-25T22:25:06.349Z,37.67
2018-12-25T22:27:39.130Z,34.87
2018-12-25T22:30:09.378Z,36.73
2018-12-25T22:32:39.468Z,34.73
2018-12-25T22:35:09.873Z,37.87
2018-12-25T22:37:39.717Z,41.73
2018-12-25T22:40:13.386Z,33.20
2018-12-25T22:42:43.508Z,36.37
2018-12-25T22:45:13.190Z,35.00
2018-12-25T22:47:43.342Z,34.87
2018-12-25T22:50:15.892Z,33.57
2018-12-25T22:52:45.370Z,35.40
2018-12-25T22:55:15.044Z,35.00
2018-12-25T22:57:46.429Z,36.40
2018-12-25T23:00:16.494Z,37.97
2018-12-25T23:02:46.538Z,34.37
2018-12-25T23:05:24.276Z,35.93
2018-12-25T23:07:54.249Z,36.27
2018-12-25T23:10:26.054Z,38.97
2018-12-25T23:12:58.863Z,38.03
2018-12-25T23:15:28.859Z,38.33
2018-12-25T23:17:58.923Z,41.80
2018-12-25T23:20:29.151Z,38.70
2018-12-25T23:22:58.848Z,39.30
2018-12-25T23:25:28.541Z,37.93
2018-12-25T23:27:58.148Z,37.77
2018-12-25T23:30:27.689Z,39.03
2018-12-25T23:32:57.434Z,39.23
2018-12-25T23:35:26.973Z,36.67
2018-12-25T23:37:56.414Z,34.00
2018-12-25T23:40:25.925Z,40.03
2018-12-25T23:42:55.543Z,40.10
2018-12-25T23:45:24.953Z,40.07
2018-12-25T23:47:54.627Z,39.93
2018-12-25T23:50:24.229Z,41.47
2018-12-25T23:52:53.701Z,40.33
2018-12-25T23:55:23.450Z,42.20
2018-12-25T23:57:52.964Z,42.40
